createdAt,value
2019-03-08T00:03:35.719Z,0.37
2019-03-08T00:08:41.918Z,0.70
2019-03-08T00:13:45.265Z,0.50
2019-03-08T00:18:48.544Z,0.50
2019-03-08T00:23:51.988Z,0.60
2019-03-08T00:28:55.515Z,0.57
2019-03-08T00:33:58.811Z,0.97
2019-03-08T00:39:02.342Z,0.83
2019-03-08T00:44:06.034Z,0.90
2019-03-08T00:49:09.571Z,0.57
2019-03-08T00:54:13.104Z,0.67
2019-03-08T00:59:16.404Z,1.07
2019-03-08T01:04:19.703Z,0.70
2019-03-08T01:09:23.023Z,0.73
2019-03-08T01:14:26.564Z,1.10
2019-03-08T01:19:30.113Z,0.90
2019-03-08T01:24:33.411Z,1.40
2019-03-08T01:29:36.699Z,0.97
2019-03-08T01:34:40.236Z,0.73
2019-03-08T01:39:43.755Z,0.87
2019-03-08T01:44:47.278Z,0.80
2019-03-08T01:49:50.858Z,1.00
2019-03-08T01:54:54.134Z,1.50
2019-03-08T01:59:57.417Z,0.93
2019-03-08T02:05:00.697Z,1.00
2019-03-08T02:10:09.577Z,1.10
2019-03-08T02:15:18.029Z,1.67
2019-03-08T02:20:22.372Z,1.10
2019-03-08T02:25:25.888Z,1.07
2019-03-08T02:30:29.247Z,0.93
2019-03-08T02:35:32.767Z,1.47
2019-03-08T02:40:38.448Z,1.50
2019-03-08T02:45:41.973Z,1.50
2019-03-08T02:50:45.245Z,1.80
2019-03-08T02:55:48.943Z,1.30
2019-03-08T03:00:52.216Z,1.77
2019-03-08T03:05:55.489Z,1.90
2019-03-08T03:10:58.761Z,1.83
2019-03-08T03:16:02.049Z,1.50
2019-03-08T03:21:05.565Z,1.03
2019-03-08T03:26:09.088Z,0.83
2019-03-08T03:31:12.658Z,0.70
2019-03-08T03:36:16.162Z,0.57
2019-03-08T03:41:19.682Z,0.80
2019-03-08T03:46:23.270Z,0.90
2019-03-08T03:51:26.554Z,0.97
2019-03-08T03:56:29.884Z,0.70
2019-03-08T04:01:35.034Z,0.80
2019-03-08T04:06:38.752Z,1.07
2019-03-08T04:11:42.262Z,1.60
2019-03-08T04:16:45.778Z,2.07
2019-03-08T04:21:49.294Z,2.30
2019-03-08T04:26:52.816Z,2.70
2019-03-08T04:31:56.340Z,3.43
2019-03-08T04:36:59.863Z,3.70
2019-03-08T04:42:03.582Z,3.43
2019-03-08T04:47:06.845Z,3.93
2019-03-08T04:52:10.122Z,4.27
2019-03-08T04:57:13.639Z,3.57
2019-03-08T05:02:16.914Z,4.70
2019-03-08T05:07:20.190Z,4.00
2019-03-08T05:12:23.883Z,4.53
2019-03-08T05:17:27.168Z,4.73
2019-03-08T05:22:30.451Z,4.60
2019-03-08T05:27:33.726Z,5.40
2019-03-08T05:32:37.075Z,5.20
2019-03-08T05:37:40.352Z,5.97
2019-03-08T05:42:43.807Z,4.10
2019-03-08T05:47:47.088Z,4.87
2019-03-08T05:52:50.359Z,5.10
2019-03-08T05:57:53.890Z,5.47
2019-03-08T06:02:57.157Z,5.30
2019-03-08T06:08:00.701Z,5.13
2019-03-08T06:13:05.920Z,4.47
2019-03-08T06:18:09.200Z,4.10
2019-03-08T06:23:12.713Z,5.07
2019-03-08T06:28:18.264Z,4.20
2019-03-08T06:33:21.234Z,4.13
2019-03-08T06:38:24.508Z,3.93
2019-03-08T06:43:28.312Z,4.23
2019-03-08T06:48:31.587Z,4.27
2019-03-08T06:53:34.861Z,4.80
2019-03-08T06:58:48.798Z,5.77
2019-03-08T07:03:52.065Z,5.47
2019-03-08T07:08:55.350Z,5.17
2019-03-08T07:13:58.659Z,5.23
2019-03-08T07:19:02.112Z,4.30
2019-03-08T07:24:07.267Z,4.43
2019-03-08T07:29:12.187Z,4.60
2019-03-08T07:34:34.113Z,3.57
2019-03-08T07:39:39.358Z,4.30
2019-03-08T07:45:00.466Z,3.63
2019-03-08T07:50:23.832Z,4.00
2019-03-08T07:55:31.821Z,4.33
2019-03-08T08:00:48.499Z,3.97
2019-03-08T08:05:58.003Z,4.37
2019-03-08T08:11:06.269Z,4.80
2019-03-08T08:16:17.046Z,5.73
2019-03-08T08:21:27.924Z,3.97
2019-03-08T08:26:50.913Z,5.07
2019-03-08T08:31:58.225Z,5.07
2019-03-08T08:37:03.139Z,5.33
2019-03-08T08:42:26.254Z,5.87
2019-03-08T08:47:31.210Z,5.60
2019-03-08T08:52:51.242Z,4.53
2019-03-08T08:57:59.426Z,6.03
2019-03-08T09:03:19.470Z,5.80
2019-03-08T09:08:30.398Z,5.83
2019-03-08T09:13:35.577Z,4.90
2019-03-08T09:18:49.741Z,4.07
2019-03-08T09:24:07.075Z,2.90
2019-03-08T09:29:13.355Z,3.20
2019-03-08T09:34:27.564Z,3.47
2019-03-08T09:39:38.568Z,2.50
2019-03-08T09:44:52.831Z,3.07
2019-03-08T09:49:57.736Z,3.03
2019-03-08T09:55:02.654Z,3.80
2019-03-08T10:00:29.850Z,3.80
2019-03-08T10:05:37.501Z,3.43
2019-03-08T10:10:51.357Z,2.50
2019-03-08T10:16:02.413Z,2.13
2019-03-08T10:21:19.320Z,1.57
2019-03-08T10:26:30.809Z,2.13
2019-03-08T10:31:38.653Z,2.27
2019-03-08T10:37:00.137Z,2.53
2019-03-08T10:42:05.058Z,1.90
2019-03-08T10:47:28.344Z,2.13
2019-03-08T10:52:35.903Z,1.70
2019-03-08T10:57:41.055Z,1.53
2019-03-08T11:02:46.045Z,2.27
2019-03-08T11:08:00.497Z,2.10
2019-03-08T11:13:05.662Z,2.33
2019-03-08T11:18:16.728Z,2.67
2019-03-08T11:23:21.642Z,2.47
2019-03-08T11:28:32.583Z,2.90
2019-03-08T11:33:37.570Z,2.83
2019-03-08T11:38:51.400Z,2.23
2019-03-08T11:43:56.474Z,2.30
2019-03-08T11:49:01.831Z,1.87
2019-03-08T11:54:21.833Z,1.67
2019-03-08T11:59:42.246Z,1.43
2019-03-08T12:05:00.686Z,1.40
2019-03-08T12:10:10.885Z,1.50
2019-03-08T12:15:16.371Z,2.17
2019-03-08T12:20:21.563Z,2.47
2019-03-08T12:25:32.504Z,1.90
2019-03-08T12:30:40.733Z,2.30
2019-03-08T12:35:48.309Z,2.60
2019-03-08T12:41:08.203Z,2.27
2019-03-08T12:46:25.100Z,2.40
2019-03-08T12:51:36.501Z,3.33
2019-03-08T12:56:44.370Z,2.60
2019-03-08T13:01:55.446Z,2.60
2019-03-08T13:07:15.385Z,2.27
2019-03-08T13:12:18.967Z,3.07
2019-03-08T13:17:22.293Z,2.20
2019-03-08T13:23:15.302Z,2.17
2019-03-08T13:28:10.297Z,1.90
2019-03-08T13:33:13.648Z,1.23
2019-03-08T13:38:17.165Z,1.47
2019-03-08T13:43:22.349Z,1.10
2019-03-08T13:48:25.624Z,1.20
2019-03-08T13:53:29.145Z,0.60
2019-03-08T13:58:32.563Z,0.97
2019-03-08T14:03:36.099Z,1.00
2019-03-08T14:08:39.414Z,1.33
2019-03-08T14:13:42.706Z,1.53
2019-03-08T14:18:46.241Z,1.33
2019-03-08T14:23:49.763Z,1.30
2019-03-08T14:28:53.302Z,2.30
2019-03-08T14:33:56.830Z,1.30
2019-03-08T14:39:00.111Z,1.20
2019-03-08T14:44:05.050Z,1.63
2019-03-08T14:49:08.602Z,1.30
2019-03-08T14:54:12.133Z,1.20
2019-03-08T14:59:17.242Z,1.17
2019-03-08T15:04:20.509Z,1.47
2019-03-08T15:09:24.070Z,1.33
2019-03-08T15:14:30.080Z,1.13
2019-03-08T15:19:36.217Z,4.07
2019-03-08T15:24:39.158Z,1.80
2019-03-08T15:29:42.680Z,1.60
2019-03-08T15:34:46.063Z,1.57
2019-03-08T15:39:49.320Z,1.77
2019-03-08T15:44:52.616Z,2.20
2019-03-08T15:49:56.230Z,1.97
2019-03-08T15:54:59.795Z,1.60
2019-03-08T16:00:06.755Z,2.50
2019-03-08T16:05:14.935Z,2.07
2019-03-08T16:10:19.722Z,2.27
2019-03-08T16:15:24.131Z,1.83
2019-03-08T16:20:29.307Z,1.73
2019-03-08T16:25:32.648Z,1.67
2019-03-08T16:30:43.852Z,1.77
2019-03-08T16:35:49.372Z,1.70
2019-03-08T16:40:54.483Z,1.80
2019-03-08T16:46:08.281Z,2.20
2019-03-08T16:51:16.496Z,1.10
2019-03-08T16:56:24.275Z,1.70
2019-03-08T17:01:29.431Z,1.20
2019-03-08T17:06:40.437Z,2.10
2019-03-08T17:11:45.581Z,1.40
2019-03-08T17:16:50.704Z,1.50
2019-03-08T17:22:04.800Z,4.87
2019-03-08T17:27:24.952Z,10.63
2019-03-08T17:32:48.139Z,2.30
2019-03-08T17:37:53.067Z,3.33
2019-03-08T17:43:13.535Z,2.13
2019-03-08T17:48:21.552Z,3.67
2019-03-08T17:53:32.515Z,5.87
2019-03-08T17:58:37.479Z,1.60
2019-03-08T18:03:42.403Z,2.07
2019-03-08T18:09:03.407Z,1.80
2019-03-08T18:14:08.566Z,0.90
2019-03-08T18:19:25.694Z,2.33
2019-03-08T18:24:33.677Z,2.17
2019-03-08T18:29:38.586Z,1.33
2019-03-08T18:34:52.275Z,1.93
2019-03-08T18:40:05.667Z,1.70
2019-03-08T18:45:33.266Z,2.10
2019-03-08T18:50:40.927Z,1.53
2019-03-08T18:55:47.763Z,2.37
2019-03-08T19:00:55.704Z,1.50
2019-03-08T19:06:00.685Z,4.07
2019-03-08T19:11:05.940Z,1.87
2019-03-08T19:16:16.539Z,1.47
2019-03-08T19:21:27.133Z,3.53
2019-03-08T19:26:48.472Z,1.63
2019-03-08T19:32:12.983Z,1.03
2019-03-08T19:37:33.472Z,2.63
2019-03-08T19:42:41.700Z,1.90
2019-03-08T19:48:10.569Z,3.63
2019-03-08T19:53:18.353Z,2.60
2019-03-08T19:58:26.627Z,3.57
2019-03-08T20:03:37.511Z,2.53
2019-03-08T20:14:18.236Z,2.10
2019-03-08T20:19:26.385Z,1.93
2019-03-08T20:25:00.045Z,4.00
2019-03-08T20:36:01.358Z,3.23
2019-03-08T20:41:24.240Z,2.27
2019-03-08T20:46:38.402Z,2.23
2019-03-08T20:51:41.937Z,2.70
2019-03-08T20:56:45.217Z,3.40
2019-03-08T21:01:48.839Z,2.37
2019-03-08T21:06:52.357Z,3.33
2019-03-08T21:11:55.959Z,2.37
2019-03-08T21:16:59.479Z,2.87
2019-03-08T21:22:02.786Z,3.30
2019-03-08T21:27:06.085Z,4.30
2019-03-08T21:32:09.618Z,4.13
2019-03-08T21:37:12.896Z,4.03
2019-03-08T21:42:16.178Z,2.77
2019-03-08T21:47:19.493Z,3.63
2019-03-08T21:52:22.821Z,2.40
2019-03-08T21:57:26.117Z,1.80
2019-03-08T22:02:29.653Z,1.73
2019-03-08T22:07:33.000Z,2.60
2019-03-08T22:12:37.924Z,2.43
2019-03-08T22:17:41.468Z,4.20
2019-03-08T22:22:44.756Z,2.70
2019-03-08T22:27:48.282Z,5.37
2019-03-08T22:32:51.842Z,2.97
2019-03-08T22:37:55.363Z,3.30
2019-03-08T22:42:58.649Z,2.70
2019-03-08T22:48:02.166Z,3.00
2019-03-08T22:53:05.505Z,2.80
2019-03-08T22:58:09.046Z,3.10
2019-03-08T23:03:12.572Z,1.90
2019-03-08T23:08:16.177Z,2.00
2019-03-08T23:13:19.889Z,1.63
2019-03-08T23:18:23.421Z,1.43
2019-03-08T23:23:26.952Z,1.90
2019-03-08T23:28:45.500Z,1.63
2019-03-08T23:33:48.793Z,1.57
2019-03-08T23:38:52.335Z,2.37
2019-03-08T23:43:56.030Z,1.80
2019-03-08T23:48:59.311Z,2.03
2019-03-08T23:54:03.813Z,2.10
2019-03-08T23:59:07.259Z,2.07
